Burnet, TX

11:23 AM CST on December 28, 2014 (GMT -0600)
Shale Valley Ranch | Change Station
CLOSE
Current Station
Personal Weather Station
Location: Burnet, TX
Elevation: 1539 ft
Nearby Weather Stations

Elev 1539 ft 30.83 °N, 98.28 °W | Updated 7 minutes ago

Overcast
Overcast
37.0 °F
Feels Like 37 °F
N
3.0
Wind Variable Wind from NNW
Gusts 9.0 mph

Today
High -- | Low -- °F
--% Chance of Precip.
Yesterday
High -- | Low -- °F
Precip. -- in
7:29 AM 5:39 PM
Waxing Crescent, 49% visible
Pressure 30.30 in
Visibility 10.0 miles
Clouds Overcast 6000 ft
Windchill 37 °F
Dew Point 30 °F
Humidity 75%
Rainfall 0.02 in
Snow Depth Not available.
UV 1 out of 12
Pollen 8.80 out of 12
Air Quality Not available.
Flu Activity Not available.
METAR KBMQ 281653Z AUTO 35007KT 10SM OVC060 03/M03 A3029 RMK AO2 RAE06 SLP261 P0000 T00281028 TSNO $

More Conditions Fewer Conditions

Pressure 30.30 in
Visibility 10.0 miles
Clouds Overcast 6000 ft
Windchill 37 °F
Dew Point 30 °F
Humidity 75%
Rainfall 0.02 in
Snow Depth Not available.
UV 1 out of 12
Pollen 8.80 out of 12
Air Quality Not available.
Flu Activity Not available.
METAR KBMQ 281653Z AUTO 35007KT 10SM OVC060 03/M03 A3029 RMK AO2 RAE06 SLP261 P0000 T00281028 TSNO $

More Conditions Fewer Conditions

Nowcast | as of 9:47 am CST on December 28, 2014

Through noon CST...light rain showers will move across the region to the northeast. Morning rainfall totals will range from a few hundredths of an inch over The Hill Country up to near 1/2 inch along and east of I-35.

×

10-Day Weather Forecast

Almanac

Astronomy

Dec. 28, 2014 Rise Set
Actual Time
Civil Twilight
Nautical Twilight
Astronomical Twilight
Moon
Length of Visible Light
Length of Day
Tomorrow will be .
, % of the Moon is Illuminated

Today's Extremes

State Highs State Lows

Community

WunderPhotos

Upload Photos

1,781,360 photos uploaded!

WunderBlogs® & News

Nearby

Air Quality

  Air Quality AQ Index Pollutant
Not available.

Snow Depth

Station Depth Elevation

Earthquake Activity

City Distance Mag. Time & Date
Minimum magnitude displayed is 2.5.

Coastal Water Temperatures

Place Temperature

Nearby Weather Stations